sensor_id;sensor_type;location;lat;lon;timestamp;P1;durP1;ratioP1;P2;durP2;ratioP2
45236;SDS011;30973;51.442;3.580;2023-05-07T00:01:59;13.85;;;10.50;;
45236;SDS011;30973;51.442;3.580;2023-05-07T00:04:25;13.40;;;10.55;;
45236;SDS011;30973;51.442;3.580;2023-05-07T00:06:52;15.95;;;10.65;;
45236;SDS011;30973;51.442;3.580;2023-05-07T00:09:19;15.02;;;10.65;;
45236;SDS011;30973;51.442;3.580;2023-05-07T00:11:46;13.85;;;10.50;;
45236;SDS011;30973;51.442;3.580;2023-05-07T00:14:12;13.63;;;9.95;;
45236;SDS011;30973;51.442;3.580;2023-05-07T00:16:39;15.23;;;10.85;;
45236;SDS011;30973;51.442;3.580;2023-05-07T00:19:05;15.63;;;10.75;;
45236;SDS011;30973;51.442;3.580;2023-05-07T00:21:32;15.15;;;9.82;;
45236;SDS011;30973;51.442;3.580;2023-05-07T00:23:59;15.85;;;10.52;;
45236;SDS011;30973;51.442;3.580;2023-05-07T00:26:25;15.93;;;10.00;;
45236;SDS011;30973;51.442;3.580;2023-05-07T00:28:52;16.48;;;10.45;;
45236;SDS011;30973;51.442;3.580;2023-05-07T00:31:19;15.10;;;10.15;;
45236;SDS011;30973;51.442;3.580;2023-05-07T00:33:45;17.17;;;10.93;;
45236;SDS011;30973;51.442;3.580;2023-05-07T00:36:12;16.17;;;10.60;;
45236;SDS011;30973;51.442;3.580;2023-05-07T00:38:39;12.65;;;9.65;;
45236;SDS011;30973;51.442;3.580;2023-05-07T00:41:06;13.18;;;10.07;;
45236;SDS011;30973;51.442;3.580;2023-05-07T00:43:33;13.25;;;9.80;;
45236;SDS011;30973;51.442;3.580;2023-05-07T00:46:00;18.25;;;11.00;;
45236;SDS011;30973;51.442;3.580;2023-05-07T00:48:27;15.30;;;11.00;;
45236;SDS011;30973;51.442;3.580;2023-05-07T00:50:54;15.35;;;10.25;;
45236;SDS011;30973;51.442;3.580;2023-05-07T00:53:20;14.98;;;10.32;;
45236;SDS011;30973;51.442;3.580;2023-05-07T00:55:47;17.02;;;10.70;;
45236;SDS011;30973;51.442;3.580;2023-05-07T00:58:14;14.77;;;10.05;;
45236;SDS011;30973;51.442;3.580;2023-05-07T01:00:41;17.67;;;10.88;;
45236;SDS011;30973;51.442;3.580;2023-05-07T01:03:08;12.60;;;10.13;;
45236;SDS011;30973;51.442;3.580;2023-05-07T01:05:35;15.65;;;10.82;;
45236;SDS011;30973;51.442;3.580;2023-05-07T01:08:02;15.05;;;11.13;;
45236;SDS011;30973;51.442;3.580;2023-05-07T01:10:29;16.75;;;11.30;;
45236;SDS011;30973;51.442;3.580;2023-05-07T01:12:57;14.32;;;10.45;;
45236;SDS011;30973;51.442;3.580;2023-05-07T01:15:25;17.63;;;11.30;;
45236;SDS011;30973;51.442;3.580;2023-05-07T01:17:52;16.98;;;10.60;;
45236;SDS011;30973;51.442;3.580;2023-05-07T01:20:25;15.82;;;10.82;;
45236;SDS011;30973;51.442;3.580;2023-05-07T01:22:55;14.93;;;10.02;;
45236;SDS011;30973;51.442;3.580;2023-05-07T01:25:22;13.40;;;10.93;;
45236;SDS011;30973;51.442;3.580;2023-05-07T01:27:52;13.77;;;10.55;;
45236;SDS011;30973;51.442;3.580;2023-05-07T01:30:22;11.98;;;9.63;;
45236;SDS011;30973;51.442;3.580;2023-05-07T01:32:58;14.75;;;10.60;;
45236;SDS011;30973;51.442;3.580;2023-05-07T01:35:27;12.75;;;9.77;;
45236;SDS011;30973;51.442;3.580;2023-05-07T01:37:55;15.38;;;10.38;;
45236;SDS011;30973;51.442;3.580;2023-05-07T01:40:22;14.02;;;10.68;;
45236;SDS011;30973;51.442;3.580;2023-05-07T01:42:49;14.95;;;9.98;;
45236;SDS011;30973;51.442;3.580;2023-05-07T01:45:19;14.15;;;11.00;;
45236;SDS011;30973;51.442;3.580;2023-05-07T01:47:46;16.25;;;11.10;;
45236;SDS011;30973;51.442;3.580;2023-05-07T01:50:12;13.80;;;10.70;;
45236;SDS011;30973;51.442;3.580;2023-05-07T01:52:41;16.25;;;10.20;;
45236;SDS011;30973;51.442;3.580;2023-05-07T01:55:08;16.15;;;10.60;;
45236;SDS011;30973;51.442;3.580;2023-05-07T01:57:34;16.85;;;10.90;;
45236;SDS011;30973;51.442;3.580;2023-05-07T02:00:01;17.58;;;11.13;;
45236;SDS011;30973;51.442;3.580;2023-05-07T02:02:40;13.98;;;11.43;;
45236;SDS011;30973;51.442;3.580;2023-05-07T02:05:16;15.90;;;11.68;;
45236;SDS011;30973;51.442;3.580;2023-05-07T02:07:46;17.63;;;11.73;;
45236;SDS011;30973;51.442;3.580;2023-05-07T02:10:13;18.08;;;11.27;;
45236;SDS011;30973;51.442;3.580;2023-05-07T02:12:40;15.45;;;11.80;;
45236;SDS011;30973;51.442;3.580;2023-05-07T02:15:07;20.88;;;10.88;;
45236;SDS011;30973;51.442;3.580;2023-05-07T02:17:34;15.73;;;10.63;;
45236;SDS011;30973;51.442;3.580;2023-05-07T02:20:01;19.20;;;11.75;;
45236;SDS011;30973;51.442;3.580;2023-05-07T02:22:30;18.70;;;10.77;;
45236;SDS011;30973;51.442;3.580;2023-05-07T02:24:56;14.45;;;10.57;;
45236;SDS011;30973;51.442;3.580;2023-05-07T02:27:23;15.32;;;10.20;;
45236;SDS011;30973;51.442;3.580;2023-05-07T02:29:50;16.77;;;10.60;;
45236;SDS011;30973;51.442;3.580;2023-05-07T02:32:16;13.93;;;11.07;;
45236;SDS011;30973;51.442;3.580;2023-05-07T02:34:43;14.20;;;10.23;;
45236;SDS011;30973;51.442;3.580;2023-05-07T02:37:10;16.45;;;11.15;;
45236;SDS011;30973;51.442;3.580;2023-05-07T02:39:38;16.45;;;11.15;;
45236;SDS011;30973;51.442;3.580;2023-05-07T02:42:04;14.13;;;9.80;;
45236;SDS011;30973;51.442;3.580;2023-05-07T02:44:31;13.40;;;10.30;;
45236;SDS011;30973;51.442;3.580;2023-05-07T02:46:58;13.18;;;10.25;;
45236;SDS011;30973;51.442;3.580;2023-05-07T02:49:24;13.52;;;9.57;;
45236;SDS011;30973;51.442;3.580;2023-05-07T02:51:51;14.02;;;10.43;;
45236;SDS011;30973;51.442;3.580;2023-05-07T02:54:22;12.68;;;10.65;;
45236;SDS011;30973;51.442;3.580;2023-05-07T02:56:48;17.17;;;10.88;;
45236;SDS011;30973;51.442;3.580;2023-05-07T02:59:15;14.30;;;10.18;;
45236;SDS011;30973;51.442;3.580;2023-05-07T03:01:42;16.15;;;10.90;;
45236;SDS011;30973;51.442;3.580;2023-05-07T03:04:11;13.68;;;10.50;;
45236;SDS011;30973;51.442;3.580;2023-05-07T03:06:38;14.02;;;11.05;;
45236;SDS011;30973;51.442;3.580;2023-05-07T03:09:04;14.45;;;11.25;;
45236;SDS011;30973;51.442;3.580;2023-05-07T03:11:31;12.70;;;10.70;;
45236;SDS011;30973;51.442;3.580;2023-05-07T03:13:57;11.43;;;10.23;;
45236;SDS011;30973;51.442;3.580;2023-05-07T03:16:24;18.05;;;10.63;;
45236;SDS011;30973;51.442;3.580;2023-05-07T03:18:51;13.18;;;10.90;;
45236;SDS011;30973;51.442;3.580;2023-05-07T03:21:18;12.48;;;10.10;;
45236;SDS011;30973;51.442;3.580;2023-05-07T03:23:44;12.68;;;10.60;;
45236;SDS011;30973;51.442;3.580;2023-05-07T03:26:11;11.82;;;9.45;;
45236;SDS011;30973;51.442;3.580;2023-05-07T03:28:37;13.88;;;9.65;;
45236;SDS011;30973;51.442;3.580;2023-05-07T03:31:08;16.33;;;10.02;;
45236;SDS011;30973;51.442;3.580;2023-05-07T03:33:37;13.80;;;10.15;;
45236;SDS011;30973;51.442;3.580;2023-05-07T03:36:05;14.85;;;9.73;;
45236;SDS011;30973;51.442;3.580;2023-05-07T03:38:32;14.27;;;10.50;;
45236;SDS011;30973;51.442;3.580;2023-05-07T03:40:59;16.25;;;10.45;;
45236;SDS011;30973;51.442;3.580;2023-05-07T03:43:25;14.45;;;10.02;;
45236;SDS011;30973;51.442;3.580;2023-05-07T03:46:00;16.10;;;9.93;;
45236;SDS011;30973;51.442;3.580;2023-05-07T03:48:27;15.57;;;11.07;;
45236;SDS011;30973;51.442;3.580;2023-05-07T03:50:57;12.90;;;10.65;;
45236;SDS011;30973;51.442;3.580;2023-05-07T03:53:27;14.63;;;10.02;;
45236;SDS011;30973;51.442;3.580;2023-05-07T03:55:53;13.00;;;10.43;;
45236;SDS011;30973;51.442;3.580;2023-05-07T03:58:20;13.32;;;10.38;;
45236;SDS011;30973;51.442;3.580;2023-05-07T04:00:47;12.70;;;10.43;;
45236;SDS011;30973;51.442;3.580;2023-05-07T04:03:25;14.35;;;11.13;;
45236;SDS011;30973;51.442;3.580;2023-05-07T04:05:55;17.35;;;11.38;;
45236;SDS011;30973;51.442;3.580;2023-05-07T04:08:22;14.85;;;10.60;;
45236;SDS011;30973;51.442;3.580;2023-05-07T04:10:55;15.77;;;11.18;;
45236;SDS011;30973;51.442;3.580;2023-05-07T04:13:24;13.32;;;10.55;;
45236;SDS011;30973;51.442;3.580;2023-05-07T04:15:51;13.43;;;10.73;;
45236;SDS011;30973;51.442;3.580;2023-05-07T04:18:19;14.77;;;10.35;;
45236;SDS011;30973;51.442;3.580;2023-05-07T04:20:47;13.88;;;10.15;;
45236;SDS011;30973;51.442;3.580;2023-05-07T04:23:15;14.93;;;10.35;;
45236;SDS011;30973;51.442;3.580;2023-05-07T04:25:42;13.82;;;9.98;;
45236;SDS011;30973;51.442;3.580;2023-05-07T04:28:18;13.63;;;10.32;;
45236;SDS011;30973;51.442;3.580;2023-05-07T04:30:45;14.27;;;10.68;;
45236;SDS011;30973;51.442;3.580;2023-05-07T04:33:13;16.00;;;10.98;;
45236;SDS011;30973;51.442;3.580;2023-05-07T04:35:41;14.30;;;10.77;;
45236;SDS011;30973;51.442;3.580;2023-05-07T04:38:08;11.88;;;10.30;;
45236;SDS011;30973;51.442;3.580;2023-05-07T04:40:35;15.93;;;10.90;;
45236;SDS011;30973;51.442;3.580;2023-05-07T04:43:02;14.52;;;10.98;;
45236;SDS011;30973;51.442;3.580;2023-05-07T04:45:32;15.15;;;11.50;;
45236;SDS011;30973;51.442;3.580;2023-05-07T04:47:59;15.05;;;10.75;;
45236;SDS011;30973;51.442;3.580;2023-05-07T04:50:26;16.38;;;11.68;;
45236;SDS011;30973;51.442;3.580;2023-05-07T04:52:58;14.23;;;10.68;;
45236;SDS011;30973;51.442;3.580;2023-05-07T04:55:25;15.73;;;11.20;;
45236;SDS011;30973;51.442;3.580;2023-05-07T04:57:52;13.52;;;10.77;;
45236;SDS011;30973;51.442;3.580;2023-05-07T05:00:20;16.13;;;10.85;;
45236;SDS011;30973;51.442;3.580;2023-05-07T05:02:49;14.38;;;10.13;;
45236;SDS011;30973;51.442;3.580;2023-05-07T05:05:19;14.75;;;10.80;;
45236;SDS011;30973;51.442;3.580;2023-05-07T05:07:48;12.25;;;10.02;;
45236;SDS011;30973;51.442;3.580;2023-05-07T05:10:15;15.80;;;11.02;;
45236;SDS011;30973;51.442;3.580;2023-05-07T05:12:43;14.25;;;11.00;;
45236;SDS011;30973;51.442;3.580;2023-05-07T05:15:11;15.02;;;12.75;;
45236;SDS011;30973;51.442;3.580;2023-05-07T05:17:39;17.33;;;12.23;;
45236;SDS011;30973;51.442;3.580;2023-05-07T05:20:06;17.67;;;12.27;;
45236;SDS011;30973;51.442;3.580;2023-05-07T05:22:34;20.35;;;12.15;;
45236;SDS011;30973;51.442;3.580;2023-05-07T05:25:01;17.65;;;12.00;;
45236;SDS011;30973;51.442;3.580;2023-05-07T05:27:28;18.17;;;12.70;;
45236;SDS011;30973;51.442;3.580;2023-05-07T05:29:55;16.15;;;11.52;;
45236;SDS011;30973;51.442;3.580;2023-05-07T05:32:21;13.38;;;11.93;;
45236;SDS011;30973;51.442;3.580;2023-05-07T05:34:50;15.07;;;11.10;;
45236;SDS011;30973;51.442;3.580;2023-05-07T05:37:17;13.93;;;10.93;;
45236;SDS011;30973;51.442;3.580;2023-05-07T05:39:44;13.68;;;12.00;;
45236;SDS011;30973;51.442;3.580;2023-05-07T05:42:11;12.38;;;11.07;;
45236;SDS011;30973;51.442;3.580;2023-05-07T05:44:38;15.48;;;11.13;;
45236;SDS011;30973;51.442;3.580;2023-05-07T05:47:05;15.00;;;11.70;;
45236;SDS011;30973;51.442;3.580;2023-05-07T05:49:31;16.90;;;12.07;;
45236;SDS011;30973;51.442;3.580;2023-05-07T05:51:59;13.68;;;10.30;;
45236;SDS011;30973;51.442;3.580;2023-05-07T05:54:26;15.30;;;11.18;;
45236;SDS011;30973;51.442;3.580;2023-05-07T05:56:53;13.45;;;10.85;;
45236;SDS011;30973;51.442;3.580;2023-05-07T05:59:19;13.55;;;11.15;;
45236;SDS011;30973;51.442;3.580;2023-05-07T06:01:46;18.50;;;11.27;;
45236;SDS011;30973;51.442;3.580;2023-05-07T06:04:13;14.68;;;12.23;;
45236;SDS011;30973;51.442;3.580;2023-05-07T06:06:40;15.73;;;13.30;;
45236;SDS011;30973;51.442;3.580;2023-05-07T06:09:07;17.50;;;13.13;;
45236;SDS011;30973;51.442;3.580;2023-05-07T06:11:39;13.85;;;12.02;;
45236;SDS011;30973;51.442;3.580;2023-05-07T06:14:08;14.30;;;11.85;;
45236;SDS011;30973;51.442;3.580;2023-05-07T06:16:36;12.52;;;10.50;;
45236;SDS011;30973;51.442;3.580;2023-05-07T06:19:05;14.95;;;11.68;;
45236;SDS011;30973;51.442;3.580;2023-05-07T06:21:32;13.93;;;11.63;;
45236;SDS011;30973;51.442;3.580;2023-05-07T06:23:59;14.63;;;11.23;;
45236;SDS011;30973;51.442;3.580;2023-05-07T06:26:26;13.48;;;10.50;;
45236;SDS011;30973;51.442;3.580;2023-05-07T06:28:53;17.05;;;11.85;;
45236;SDS011;30973;51.442;3.580;2023-05-07T06:31:19;12.35;;;10.80;;
45236;SDS011;30973;51.442;3.580;2023-05-07T06:34:02;14.57;;;11.57;;
45236;SDS011;30973;51.442;3.580;2023-05-07T06:36:35;12.95;;;10.40;;
45236;SDS011;30973;51.442;3.580;2023-05-07T06:39:11;16.75;;;11.65;;
45236;SDS011;30973;51.442;3.580;2023-05-07T06:41:38;14.73;;;11.05;;
45236;SDS011;30973;51.442;3.580;2023-05-07T06:44:14;14.30;;;10.45;;
45236;SDS011;30973;51.442;3.580;2023-05-07T06:46:50;16.95;;;11.05;;
45236;SDS011;30973;51.442;3.580;2023-05-07T06:49:16;13.98;;;11.00;;
45236;SDS011;30973;51.442;3.580;2023-05-07T06:51:44;20.50;;;11.85;;
45236;SDS011;30973;51.442;3.580;2023-05-07T06:54:10;15.65;;;11.23;;
45236;SDS011;30973;51.442;3.580;2023-05-07T06:56:40;14.18;;;10.48;;
45236;SDS011;30973;51.442;3.580;2023-05-07T06:59:07;13.13;;;10.90;;
45236;SDS011;30973;51.442;3.580;2023-05-07T07:01:38;17.40;;;12.35;;
45236;SDS011;30973;51.442;3.580;2023-05-07T07:04:06;14.43;;;10.68;;
45236;SDS011;30973;51.442;3.580;2023-05-07T07:06:34;13.88;;;11.50;;
45236;SDS011;30973;51.442;3.580;2023-05-07T07:09:07;13.98;;;10.82;;
45236;SDS011;30973;51.442;3.580;2023-05-07T07:11:34;13.60;;;11.32;;
45236;SDS011;30973;51.442;3.580;2023-05-07T07:14:01;14.15;;;10.40;;
45236;SDS011;30973;51.442;3.580;2023-05-07T07:16:33;13.82;;;10.90;;
45236;SDS011;30973;51.442;3.580;2023-05-07T07:19:00;14.80;;;10.95;;
45236;SDS011;30973;51.442;3.580;2023-05-07T07:21:27;13.88;;;11.25;;
45236;SDS011;30973;51.442;3.580;2023-05-07T07:23:54;13.07;;;10.93;;
45236;SDS011;30973;51.442;3.580;2023-05-07T07:26:20;15.95;;;10.18;;
45236;SDS011;30973;51.442;3.580;2023-05-07T07:28:47;13.20;;;10.85;;
45236;SDS011;30973;51.442;3.580;2023-05-07T07:31:18;13.73;;;10.48;;
45236;SDS011;30973;51.442;3.580;2023-05-07T07:33:46;15.57;;;11.25;;
45236;SDS011;30973;51.442;3.580;2023-05-07T07:36:13;12.90;;;10.00;;
45236;SDS011;30973;51.442;3.580;2023-05-07T07:38:39;16.98;;;10.32;;
45236;SDS011;30973;51.442;3.580;2023-05-07T07:41:07;11.55;;;9.63;;
45236;SDS011;30973;51.442;3.580;2023-05-07T07:43:35;14.23;;;9.75;;
45236;SDS011;30973;51.442;3.580;2023-05-07T07:46:03;13.85;;;9.88;;
45236;SDS011;30973;51.442;3.580;2023-05-07T07:48:30;14.10;;;9.60;;
45236;SDS011;30973;51.442;3.580;2023-05-07T07:50:58;13.27;;;9.82;;
45236;SDS011;30973;51.442;3.580;2023-05-07T07:53:24;15.73;;;10.60;;
45236;SDS011;30973;51.442;3.580;2023-05-07T07:55:51;11.77;;;9.48;;
45236;SDS011;30973;51.442;3.580;2023-05-07T07:58:26;14.27;;;9.80;;
45236;SDS011;30973;51.442;3.580;2023-05-07T08:00:53;16.77;;;9.20;;
45236;SDS011;30973;51.442;3.580;2023-05-07T08:03:23;12.88;;;9.27;;
45236;SDS011;30973;51.442;3.580;2023-05-07T08:05:53;13.48;;;8.98;;
45236;SDS011;30973;51.442;3.580;2023-05-07T08:08:22;13.50;;;9.18;;
45236;SDS011;30973;51.442;3.580;2023-05-07T08:10:50;14.50;;;8.95;;
45236;SDS011;30973;51.442;3.580;2023-05-07T08:13:24;14.55;;;9.50;;
45236;SDS011;30973;51.442;3.580;2023-05-07T08:15:51;14.23;;;10.07;;
45236;SDS011;30973;51.442;3.580;2023-05-07T08:18:19;13.88;;;8.88;;
45236;SDS011;30973;51.442;3.580;2023-05-07T08:20:45;17.33;;;9.52;;
45236;SDS011;30973;51.442;3.580;2023-05-07T08:23:16;12.90;;;8.23;;
45236;SDS011;30973;51.442;3.580;2023-05-07T08:25:44;13.82;;;8.48;;
45236;SDS011;30973;51.442;3.580;2023-05-07T08:28:11;13.68;;;9.00;;
45236;SDS011;30973;51.442;3.580;2023-05-07T08:30:39;14.30;;;8.38;;
45236;SDS011;30973;51.442;3.580;2023-05-07T08:33:06;17.17;;;8.60;;
45236;SDS011;30973;51.442;3.580;2023-05-07T08:35:32;15.35;;;9.20;;
45236;SDS011;30973;51.442;3.580;2023-05-07T08:37:59;15.93;;;8.20;;
45236;SDS011;30973;51.442;3.580;2023-05-07T08:40:27;15.48;;;9.15;;
45236;SDS011;30973;51.442;3.580;2023-05-07T08:42:57;10.98;;;8.38;;
45236;SDS011;30973;51.442;3.580;2023-05-07T08:45:24;14.57;;;8.38;;
45236;SDS011;30973;51.442;3.580;2023-05-07T08:47:55;14.80;;;8.27;;
45236;SDS011;30973;51.442;3.580;2023-05-07T08:50:29;13.27;;;8.82;;
45236;SDS011;30973;51.442;3.580;2023-05-07T08:52:57;13.18;;;8.85;;
45236;SDS011;30973;51.442;3.580;2023-05-07T08:55:24;13.88;;;9.50;;
45236;SDS011;30973;51.442;3.580;2023-05-07T08:57:50;17.23;;;10.13;;
45236;SDS011;30973;51.442;3.580;2023-05-07T09:00:19;15.50;;;10.00;;
45236;SDS011;30973;51.442;3.580;2023-05-07T09:02:49;16.52;;;10.90;;
45236;SDS011;30973;51.442;3.580;2023-05-07T09:05:16;15.45;;;10.60;;
45236;SDS011;30973;51.442;3.580;2023-05-07T09:07:43;17.95;;;11.32;;
45236;SDS011;30973;51.442;3.580;2023-05-07T09:10:11;16.70;;;10.70;;
45236;SDS011;30973;51.442;3.580;2023-05-07T09:12:40;16.25;;;10.35;;
45236;SDS011;30973;51.442;3.580;2023-05-07T09:15:09;17.92;;;10.88;;
45236;SDS011;30973;51.442;3.580;2023-05-07T09:17:37;17.95;;;11.80;;
45236;SDS011;30973;51.442;3.580;2023-05-07T09:20:04;13.60;;;10.45;;
45236;SDS011;30973;51.442;3.580;2023-05-07T09:22:36;19.67;;;10.48;;
45236;SDS011;30973;51.442;3.580;2023-05-07T09:25:06;15.05;;;10.95;;
45236;SDS011;30973;51.442;3.580;2023-05-07T09:27:35;18.02;;;10.77;;
45236;SDS011;30973;51.442;3.580;2023-05-07T09:30:03;17.70;;;9.82;;
45236;SDS011;30973;51.442;3.580;2023-05-07T09:32:29;13.80;;;10.35;;
45236;SDS011;30973;51.442;3.580;2023-05-07T09:34:58;16.17;;;11.25;;
45236;SDS011;30973;51.442;3.580;2023-05-07T09:37:26;16.45;;;10.18;;
45236;SDS011;30973;51.442;3.580;2023-05-07T09:39:53;19.95;;;10.85;;
45236;SDS011;30973;51.442;3.580;2023-05-07T09:42:23;14.82;;;10.25;;
45236;SDS011;30973;51.442;3.580;2023-05-07T09:44:52;17.08;;;10.77;;
45236;SDS011;30973;51.442;3.580;2023-05-07T09:47:23;16.17;;;10.93;;
45236;SDS011;30973;51.442;3.580;2023-05-07T09:49:54;16.70;;;11.35;;
45236;SDS011;30973;51.442;3.580;2023-05-07T09:52:22;19.17;;;11.85;;
45236;SDS011;30973;51.442;3.580;2023-05-07T09:54:54;16.27;;;10.93;;
45236;SDS011;30973;51.442;3.580;2023-05-07T09:57:26;18.60;;;11.45;;
45236;SDS011;30973;51.442;3.580;2023-05-07T09:59:58;20.42;;;11.65;;
45236;SDS011;30973;51.442;3.580;2023-05-07T10:05:44;16.85;;;11.43;;
45236;SDS011;30973;51.442;3.580;2023-05-07T10:08:13;20.55;;;12.35;;
45236;SDS011;30973;51.442;3.580;2023-05-07T10:10:45;14.73;;;11.55;;
45236;SDS011;30973;51.442;3.580;2023-05-07T10:13:18;20.52;;;12.50;;
45236;SDS011;30973;51.442;3.580;2023-05-07T10:15:48;15.68;;;11.70;;
45236;SDS011;30973;51.442;3.580;2023-05-07T10:18:16;18.52;;;11.88;;
45236;SDS011;30973;51.442;3.580;2023-05-07T10:20:46;18.48;;;11.38;;
45236;SDS011;30973;51.442;3.580;2023-05-07T10:23:14;14.73;;;11.15;;
45236;SDS011;30973;51.442;3.580;2023-05-07T10:25:47;14.30;;;11.00;;
45236;SDS011;30973;51.442;3.580;2023-05-07T10:28:19;15.63;;;11.75;;
45236;SDS011;30973;51.442;3.580;2023-05-07T10:33:39;16.38;;;11.23;;
45236;SDS011;30973;51.442;3.580;2023-05-07T10:36:07;17.70;;;11.95;;
45236;SDS011;30973;51.442;3.580;2023-05-07T10:38:34;19.13;;;12.00;;
45236;SDS011;30973;51.442;3.580;2023-05-07T10:41:01;17.60;;;12.02;;
45236;SDS011;30973;51.442;3.580;2023-05-07T10:43:40;18.20;;;12.20;;
45236;SDS011;30973;51.442;3.580;2023-05-07T10:46:18;18.10;;;12.35;;
45236;SDS011;30973;51.442;3.580;2023-05-07T10:51:35;16.58;;;12.27;;
45236;SDS011;30973;51.442;3.580;2023-05-07T10:56:43;18.98;;;12.00;;
45236;SDS011;30973;51.442;3.580;2023-05-07T11:02:02;18.92;;;13.50;;
45236;SDS011;30973;51.442;3.580;2023-05-07T11:04:43;16.35;;;12.57;;
45236;SDS011;30973;51.442;3.580;2023-05-07T11:07:28;18.85;;;13.15;;
45236;SDS011;30973;51.442;3.580;2023-05-07T11:10:03;20.92;;;13.23;;
45236;SDS011;30973;51.442;3.580;2023-05-07T11:12:54;17.92;;;13.40;;
45236;SDS011;30973;51.442;3.580;2023-05-07T11:15:35;19.88;;;12.60;;
45236;SDS011;30973;51.442;3.580;2023-05-07T11:18:11;18.52;;;12.63;;
45236;SDS011;30973;51.442;3.580;2023-05-07T11:26:41;18.00;;;13.25;;
45236;SDS011;30973;51.442;3.580;2023-05-07T11:29:15;19.65;;;14.07;;
45236;SDS011;30973;51.442;3.580;2023-05-07T11:31:48;19.30;;;14.38;;
45236;SDS011;30973;51.442;3.580;2023-05-07T11:34:19;19.00;;;14.23;;
45236;SDS011;30973;51.442;3.580;2023-05-07T11:36:46;18.42;;;14.15;;
45236;SDS011;30973;51.442;3.580;2023-05-07T11:39:27;21.83;;;15.40;;
45236;SDS011;30973;51.442;3.580;2023-05-07T11:41:54;19.10;;;14.45;;
45236;SDS011;30973;51.442;3.580;2023-05-07T11:44:21;19.45;;;14.48;;
45236;SDS011;30973;51.442;3.580;2023-05-07T11:47:06;19.27;;;15.15;;
45236;SDS011;30973;51.442;3.580;2023-05-07T11:49:32;21.30;;;15.18;;
45236;SDS011;30973;51.442;3.580;2023-05-07T11:52:00;19.80;;;15.35;;
45236;SDS011;30973;51.442;3.580;2023-05-07T11:54:34;19.90;;;14.73;;
45236;SDS011;30973;51.442;3.580;2023-05-07T11:57:01;20.88;;;15.45;;
45236;SDS011;30973;51.442;3.580;2023-05-07T11:59:29;21.40;;;15.48;;
45236;SDS011;30973;51.442;3.580;2023-05-07T12:01:56;20.42;;;15.38;;
45236;SDS011;30973;51.442;3.580;2023-05-07T12:04:23;23.50;;;17.25;;
45236;SDS011;30973;51.442;3.580;2023-05-07T12:06:53;22.20;;;16.80;;
45236;SDS011;30973;51.442;3.580;2023-05-07T12:09:20;22.23;;;15.68;;
45236;SDS011;30973;51.442;3.580;2023-05-07T12:11:47;22.45;;;16.65;;
45236;SDS011;30973;51.442;3.580;2023-05-07T12:14:14;21.20;;;15.45;;
45236;SDS011;30973;51.442;3.580;2023-05-07T12:16:42;22.73;;;15.85;;
45236;SDS011;30973;51.442;3.580;2023-05-07T12:19:09;20.27;;;15.57;;
45236;SDS011;30973;51.442;3.580;2023-05-07T12:21:41;23.08;;;15.68;;
45236;SDS011;30973;51.442;3.580;2023-05-07T12:24:08;21.65;;;16.00;;
45236;SDS011;30973;51.442;3.580;2023-05-07T12:26:37;19.90;;;14.98;;
45236;SDS011;30973;51.442;3.580;2023-05-07T12:29:04;21.95;;;14.68;;
45236;SDS011;30973;51.442;3.580;2023-05-07T12:31:30;22.20;;;15.30;;
45236;SDS011;30973;51.442;3.580;2023-05-07T12:34:15;18.90;;;14.00;;
45236;SDS011;30973;51.442;3.580;2023-05-07T12:36:41;21.25;;;13.80;;
45236;SDS011;30973;51.442;3.580;2023-05-07T12:39:08;17.65;;;13.93;;
45236;SDS011;30973;51.442;3.580;2023-05-07T12:44:38;17.70;;;13.55;;
45236;SDS011;30973;51.442;3.580;2023-05-07T12:47:05;20.00;;;13.82;;
45236;SDS011;30973;51.442;3.580;2023-05-07T12:49:33;18.27;;;14.77;;
45236;SDS011;30973;51.442;3.580;2023-05-07T12:52:00;19.00;;;14.07;;
45236;SDS011;30973;51.442;3.580;2023-05-07T12:54:27;21.35;;;14.98;;
45236;SDS011;30973;51.442;3.580;2023-05-07T12:57:09;23.13;;;14.95;;
45236;SDS011;30973;51.442;3.580;2023-05-07T12:59:37;20.35;;;14.45;;
45236;SDS011;30973;51.442;3.580;2023-05-07T13:02:04;19.60;;;14.18;;
45236;SDS011;30973;51.442;3.580;2023-05-07T13:04:31;15.43;;;13.63;;
45236;SDS011;30973;51.442;3.580;2023-05-07T13:06:57;14.45;;;11.93;;
45236;SDS011;30973;51.442;3.580;2023-05-07T13:09:24;17.13;;;11.15;;
45236;SDS011;30973;51.442;3.580;2023-05-07T13:11:50;16.20;;;12.55;;
45236;SDS011;30973;51.442;3.580;2023-05-07T13:14:17;17.42;;;13.95;;
45236;SDS011;30973;51.442;3.580;2023-05-07T13:16:44;19.55;;;15.00;;
45236;SDS011;30973;51.442;3.580;2023-05-07T13:19:11;16.48;;;13.25;;
45236;SDS011;30973;51.442;3.580;2023-05-07T13:21:37;15.90;;;12.13;;
45236;SDS011;30973;51.442;3.580;2023-05-07T13:24:04;18.92;;;14.13;;
45236;SDS011;30973;51.442;3.580;2023-05-07T13:26:31;15.02;;;10.55;;
45236;SDS011;30973;51.442;3.580;2023-05-07T13:28:57;15.88;;;11.93;;
45236;SDS011;30973;51.442;3.580;2023-05-07T13:31:24;16.75;;;10.60;;
45236;SDS011;30973;51.442;3.580;2023-05-07T13:33:51;16.98;;;9.88;;
45236;SDS011;30973;51.442;3.580;2023-05-07T13:36:19;14.10;;;9.18;;
45236;SDS011;30973;51.442;3.580;2023-05-07T13:38:46;13.23;;;9.23;;
45236;SDS011;30973;51.442;3.580;2023-05-07T13:41:12;14.00;;;9.00;;
45236;SDS011;30973;51.442;3.580;2023-05-07T13:43:39;15.57;;;9.23;;
45236;SDS011;30973;51.442;3.580;2023-05-07T13:46:06;12.32;;;8.70;;
45236;SDS011;30973;51.442;3.580;2023-05-07T13:48:33;14.55;;;9.75;;
45236;SDS011;30973;51.442;3.580;2023-05-07T13:51:01;12.80;;;9.48;;
45236;SDS011;30973;51.442;3.580;2023-05-07T13:53:27;14.90;;;10.75;;
45236;SDS011;30973;51.442;3.580;2023-05-07T13:55:54;12.60;;;9.15;;
45236;SDS011;30973;51.442;3.580;2023-05-07T13:58:21;12.43;;;10.07;;
45236;SDS011;30973;51.442;3.580;2023-05-07T14:00:47;15.70;;;10.27;;
45236;SDS011;30973;51.442;3.580;2023-05-07T14:03:14;12.82;;;7.50;;
45236;SDS011;30973;51.442;3.580;2023-05-07T14:05:41;10.23;;;5.40;;
45236;SDS011;30973;51.442;3.580;2023-05-07T14:08:08;9.38;;;5.07;;
45236;SDS011;30973;51.442;3.580;2023-05-07T14:10:34;9.90;;;4.57;;
45236;SDS011;30973;51.442;3.580;2023-05-07T14:13:01;8.60;;;4.40;;
45236;SDS011;30973;51.442;3.580;2023-05-07T14:15:28;8.98;;;4.88;;
45236;SDS011;30973;51.442;3.580;2023-05-07T14:17:55;9.27;;;5.60;;
45236;SDS011;30973;51.442;3.580;2023-05-07T14:20:23;9.60;;;6.18;;
45236;SDS011;30973;51.442;3.580;2023-05-07T14:22:50;9.88;;;6.15;;
45236;SDS011;30973;51.442;3.580;2023-05-07T14:25:17;11.50;;;8.27;;
45236;SDS011;30973;51.442;3.580;2023-05-07T14:27:48;13.73;;;8.35;;
45236;SDS011;30973;51.442;3.580;2023-05-07T14:30:15;13.20;;;9.48;;
45236;SDS011;30973;51.442;3.580;2023-05-07T14:32:43;15.60;;;10.75;;
45236;SDS011;30973;51.442;3.580;2023-05-07T14:35:09;14.57;;;9.73;;
45236;SDS011;30973;51.442;3.580;2023-05-07T14:37:36;13.80;;;8.65;;
45236;SDS011;30973;51.442;3.580;2023-05-07T14:40:03;9.43;;;6.00;;
45236;SDS011;30973;51.442;3.580;2023-05-07T14:42:30;11.35;;;6.85;;
45236;SDS011;30973;51.442;3.580;2023-05-07T14:44:56;13.93;;;9.70;;
45236;SDS011;30973;51.442;3.580;2023-05-07T14:47:23;13.75;;;9.40;;
45236;SDS011;30973;51.442;3.580;2023-05-07T14:49:49;9.60;;;7.00;;
45236;SDS011;30973;51.442;3.580;2023-05-07T14:52:16;13.25;;;10.38;;
45236;SDS011;30973;51.442;3.580;2023-05-07T14:54:43;9.73;;;6.82;;